Time;durP1;ratioP1;P1;durP2;ratioP2;P2;SDS_P1;SDS_P2;PMS_P1;PMS_P2;Temp;Humidity;BMP_temperature;BMP_pressure;BME280_temperature;BME280_humidity;BME280_pressure;Samples;Min_cycle;Max_cycle;Signal;HPM_P1;HPM_P2
2023/09/03 00:00:07;;;;;;;;;;;22.90;98.30;23.10;100008.00;;;;336143;28;92134;-93
2023/09/03 00:00:19;;;;;;;;;;;22.90;98.30;23.00;100004.00;;;;339132;28;95158;-94
2023/09/03 00:00:31;;;;;;;;;;;23.00;98.50;23.10;100000.00;;;;338942;28;91236;-93
2023/09/03 00:00:43;;;;;;;;;;;23.00;98.50;23.00;100004.00;;;;337684;28;94865;-93
2023/09/03 00:00:55;;;;;;;;;;;22.90;98.50;23.00;100004.00;;;;337451;28;92062;-93
2023/09/03 00:01:07;;;;;;;;;;;23.00;98.70;23.00;100003.00;;;;337779;28;95121;-93
2023/09/03 00:01:19;;;;;;;;;;;22.90;98.40;23.00;100002.00;;;;340169;28;92047;-93
2023/09/03 00:01:31;;;;;;;;;;;22.90;98.40;23.00;99999.00;;;;339060;28;95863;-93
2023/09/03 00:01:43;;;;;;;;;;;22.90;98.40;23.00;100007.00;;;;337529;28;92031;-93
2023/09/03 00:01:55;;;;;;;;;;;23.00;98.40;23.10;99997.00;;;;337807;28;94684;-93
2023/09/03 00:02:07;;;;;;;;;;;22.90;98.40;23.10;100002.00;;;;338793;28;92049;-93
2023/09/03 00:02:19;;;;;;;;;;;22.90;98.50;23.10;100006.00;;;;337810;28;94904;-93
2023/09/03 00:02:31;;;;;;;;;;;22.90;98.50;23.10;100001.00;;;;337577;28;90398;-93
2023/09/03 00:02:43;;;;;;;;;;;23.00;98.60;23.10;99998.00;;;;336331;28;95410;-93
2023/09/03 00:02:55;;;;;;;;;;;23.00;98.60;23.10;99998.00;;;;337570;28;91956;-93
2023/09/03 00:03:07;;;;;;;;;;;22.90;98.60;23.10;99995.00;;;;335246;29;94889;-93
2023/09/03 00:03:20;;;;;;;;;;;23.00;98.60;23.20;99997.00;;;;337650;28;92071;-93
2023/09/03 00:03:32;;;;;;;;;;;23.00;98.60;23.20;99999.00;;;;336584;28;96438;-93
2023/09/03 00:03:44;;;;;;;;;;;23.00;98.70;23.10;99996.00;;;;336303;28;91196;-93
2023/09/03 00:03:56;;;;;;;;;;;23.00;98.70;23.10;99995.00;;;;336631;28;95498;-93
2023/09/03 00:04:08;;;;;;;;;;;23.00;98.80;23.10;99997.00;;;;337702;28;91195;-94
2023/09/03 00:04:20;;;;;;;;;;;22.90;98.70;23.20;99998.00;;;;339247;28;95751;-93
2023/09/03 00:04:32;;;;;;;;;;;23.00;98.80;23.10;99993.00;;;;336359;28;91221;-93
2023/09/03 00:04:44;;;;;;;;;;;23.00;98.70;23.10;99994.00;;;;339271;28;94923;-93
2023/09/03 00:04:55;;;;;;;;;;;23.00;98.70;23.00;99998.00;;;;339199;28;91868;-93
2023/09/03 00:05:07;;;;;;;;;;;23.00;98.80;23.10;99990.00;;;;336852;28;95224;-93
2023/09/03 00:05:20;;;;;;;;;;;23.00;98.70;23.10;99998.00;;;;337870;28;91182;-94
2023/09/03 00:05:32;;;;;;;;;;;23.00;98.60;23.10;100000.00;;;;336911;28;96389;-93
2023/09/03 00:05:49;;;;;;;;;;;22.90;98.60;23.10;99998.00;;;;336578;28;91980;-94
2023/09/03 00:06:01;;;;;;;;;;;23.00;98.90;23.00;99997.00;;;;338106;28;94593;-93
2023/09/03 00:06:13;;;;;;;;;;;23.00;98.90;23.00;100002.00;;;;338092;28;91868;-93
2023/09/03 00:06:25;;;;;;;;;;;22.90;99.00;23.00;99998.00;;;;338157;28;95533;-93
2023/09/03 00:06:37;;;;;;;;;;;22.90;98.90;23.10;99997.00;;;;336568;28;91222;-93
2023/09/03 00:06:48;;;;;;;;;;;22.90;98.80;23.10;99998.00;;;;340880;28;93939;-93
2023/09/03 00:07:00;;;;;;;;;;;22.90;98.90;23.00;99998.00;;;;336562;28;92219;-93
2023/09/03 00:07:12;;;;;;;;;;;22.90;99.20;23.10;100001.00;;;;336885;28;95282;-93
2023/09/03 00:07:24;;;;;;;;;;;22.90;99.10;23.00;100001.00;;;;337870;28;91271;-93
2023/09/03 00:07:36;;;;;;;;;;;23.00;99.20;23.10;100001.00;;;;338242;28;94679;-94
2023/09/03 00:07:49;;;;;;;;;;;22.90;99.10;23.10;100004.00;;;;337729;28;92098;-92
2023/09/03 00:08:02;;;;;;;;;;;22.90;99.00;23.00;100007.00;;;;339503;28;95388;-93
2023/09/03 00:08:14;;;;;;;;;;;22.90;99.20;23.00;99998.00;;;;336668;28;91032;-93
2023/09/03 00:08:26;;;;;;;;;;;22.90;99.20;23.00;99997.00;;;;338083;28;95569;-93
2023/09/03 00:08:38;;;;;;;;;;;22.90;99.10;23.00;100005.00;;;;337790;28;90375;-93
2023/09/03 00:08:50;;;;;;;;;;;22.90;99.00;23.00;100004.00;;;;338222;28;94917;-93
2023/09/03 00:09:04;;;;;;;;;;;22.90;98.90;23.10;100002.00;;;;339227;28;91979;-93
2023/09/03 00:09:16;;;;;;;;;;;22.90;99.00;23.10;99999.00;;;;338276;28;95835;-93
2023/09/03 00:09:28;;;;;;;;;;;22.90;99.10;23.00;100001.00;;;;335436;29;91119;-92
2023/09/03 00:09:40;;;;;;;;;;;22.90;99.50;23.00;100011.00;;;;339784;28;95402;-93
2023/09/03 00:09:52;;;;;;;;;;;22.90;99.20;23.10;100002.00;;;;339525;28;91109;-92
2023/09/03 00:10:04;;;;;;;;;;;22.90;99.10;23.20;100003.00;;;;339709;28;94600;-92
2023/09/03 00:10:16;;;;;;;;;;;22.90;99.10;23.10;100007.00;;;;338562;28;91198;-93
2023/09/03 00:10:28;;;;;;;;;;;22.90;99.20;23.10;99996.00;;;;336246;29;96541;-93
2023/09/03 00:10:40;;;;;;;;;;;22.90;99.10;23.00;100008.00;;;;338750;28;90421;-93
2023/09/03 00:10:52;;;;;;;;;;;22.90;99.20;22.90;100010.00;;;;338902;28;95618;-94
2023/09/03 00:11:04;;;;;;;;;;;22.90;99.30;23.00;100012.00;;;;339710;28;91136;-92
2023/09/03 00:11:16;;;;;;;;;;;22.90;99.20;23.00;100009.00;;;;340260;28;92395;-92
2023/09/03 00:11:28;;;;;;;;;;;22.90;99.20;22.90;100008.00;;;;337099;28;92118;-93
2023/09/03 00:11:40;;;;;;;;;;;22.90;99.30;22.90;100003.00;;;;337369;28;96079;-92
2023/09/03 00:11:51;;;;;;;;;;;22.90;99.30;23.00;100009.00;;;;338650;28;91097;-94
2023/09/03 00:12:04;;;;;;;;;;;22.90;99.10;22.90;100000.00;;;;337220;28;94629;-93
2023/09/03 00:12:15;;;;;;;;;;;22.90;99.50;22.90;100005.00;;;;337170;28;91147;-92
2023/09/03 00:12:27;;;;;;;;;;;22.90;99.60;22.80;99998.00;;;;339947;28;95893;-93
2023/09/03 00:12:39;;;;;;;;;;;22.90;99.60;22.80;100007.00;;;;337102;28;91226;-94
2023/09/03 00:12:51;;;;;;;;;;;22.90;99.60;22.80;100001.00;;;;338822;28;94187;-93
2023/09/03 00:13:04;;;;;;;;;;;22.80;99.80;22.80;99996.00;;;;338430;28;92017;-93
2023/09/03 00:13:16;;;;;;;;;;;22.80;99.50;22.80;100007.00;;;;341315;28;95931;-93
2023/09/03 00:13:27;;;;;;;;;;;22.80;99.50;22.80;100005.00;;;;338352;28;91199;-93
2023/09/03 00:13:40;;;;;;;;;;;22.80;99.60;22.70;99998.00;;;;340082;28;96647;-93
2023/09/03 00:13:51;;;;;;;;;;;22.80;99.60;22.80;99996.00;;;;338405;28;91194;-93
2023/09/03 00:14:03;;;;;;;;;;;22.80;99.50;22.80;100001.00;;;;338391;28;96042;-92
2023/09/03 00:14:15;;;;;;;;;;;22.80;99.40;22.80;100003.00;;;;338516;28;91082;-93
2023/09/03 00:14:27;;;;;;;;;;;22.80;99.50;22.70;100001.00;;;;339709;28;94260;-93
2023/09/03 00:14:39;;;;;;;;;;;22.80;99.50;22.70;99994.00;;;;339651;28;90347;-93
2023/09/03 00:14:54;;;;;;;;;;;22.80;99.60;22.80;100000.00;;;;338509;28;93908;-93
2023/09/03 00:15:08;;;;;;;;;;;22.80;99.30;22.70;100005.00;;;;336561;28;91178;-93
2023/09/03 00:15:25;;;;;;;;;;;22.80;99.30;22.70;100003.00;;;;334969;29;95067;-93
2023/09/03 00:15:39;;;;;;;;;;;22.80;99.40;22.80;100000.00;;;;338912;28;92008;-93
2023/09/03 00:15:51;;;;;;;;;;;22.80;99.40;22.80;99998.00;;;;337813;28;94485;-93
2023/09/03 00:16:03;;;;;;;;;;;22.80;99.30;22.90;99998.00;;;;337451;28;92071;-93
2023/09/03 00:16:15;;;;;;;;;;;22.80;99.20;23.00;100001.00;;;;340361;28;94788;-93
2023/09/03 00:16:27;;;;;;;;;;;22.80;99.30;23.00;99992.00;;;;337514;28;91837;-93
2023/09/03 00:16:39;;;;;;;;;;;22.80;99.40;22.90;99993.00;;;;336470;28;95105;-93
2023/09/03 00:16:51;;;;;;;;;;;22.80;99.40;22.90;100003.00;;;;337600;28;91252;-92
2023/09/03 00:17:03;;;;;;;;;;;22.80;99.30;22.90;100001.00;;;;339057;28;94494;-93
2023/09/03 00:17:15;;;;;;;;;;;22.80;99.20;23.00;100000.00;;;;338653;28;92050;-93
2023/09/03 00:17:27;;;;;;;;;;;22.80;99.20;22.90;99994.00;;;;336287;28;94564;-92
2023/09/03 00:17:39;;;;;;;;;;;22.80;99.30;22.80;100000.00;;;;337582;28;91124;-93
2023/09/03 00:17:51;;;;;;;;;;;22.80;99.50;22.90;99995.00;;;;339084;28;95889;-94
2023/09/03 00:18:03;;;;;;;;;;;22.80;99.40;22.90;100000.00;;;;334722;29;92061;-93
2023/09/03 00:18:15;;;;;;;;;;;22.80;99.30;22.90;99998.00;;;;337731;28;96005;-93
2023/09/03 00:18:27;;;;;;;;;;;22.80;99.20;22.90;99994.00;;;;338775;28;92091;-94
2023/09/03 00:18:40;;;;;;;;;;;22.80;99.10;23.00;99997.00;;;;337816;28;96066;-94
2023/09/03 00:18:51;;;;;;;;;;;22.80;99.20;22.90;99993.00;;;;338685;28;91411;-93
2023/09/03 00:19:03;;;;;;;;;;;22.80;99.40;22.90;99995.00;;;;336396;28;94929;-93
2023/09/03 00:19:15;;;;;;;;;;;22.80;99.40;22.90;99993.00;;;;337293;28;92146;-93
2023/09/03 00:19:27;;;;;;;;;;;22.80;99.30;22.90;99995.00;;;;337626;28;95729;-93
2023/09/03 00:19:39;;;;;;;;;;;22.80;99.30;22.80;100000.00;;;;337492;28;91913;-93
2023/09/03 00:19:51;;;;;;;;;;;22.80;99.60;22.90;99997.00;;;;336479;28;94169;-93
2023/09/03 00:20:03;;;;;;;;;;;22.80;99.40;22.90;99990.00;;;;337438;28;92190;-93
2023/09/03 00:20:15;;;;;;;;;;;22.80;99.30;22.90;99997.00;;;;339283;28;94638;-93
2023/09/03 00:20:27;;;;;;;;;;;22.80;99.30;22.90;99992.00;;;;337556;28;91113;-93
2023/09/03 00:20:39;;;;;;;;;;;22.80;99.20;22.90;99993.00;;;;337700;28;96295;-94
2023/09/03 00:21:01;;;;;;;;;;;22.80;99.20;22.90;99991.00;;;;336246;28;91247;-92
2023/09/03 00:21:13;;;;;;;;;;;22.80;99.20;22.80;99993.00;;;;336468;28;95060;-93
2023/09/03 00:21:28;;;;;;;;;;;22.80;99.50;22.80;100001.00;;;;337416;28;91316;-93
2023/09/03 00:21:40;;;;;;;;;;;22.80;99.40;22.90;100000.00;;;;336471;28;95328;-93
2023/09/03 00:21:52;;;;;;;;;;;22.80;99.20;22.90;99990.00;;;;338865;28;91992;-91
2023/09/03 00:22:04;;;;;;;;;;;22.80;99.30;22.90;99994.00;;;;337672;28;94214;-94
2023/09/03 00:22:15;;;;;;;;;;;22.80;99.30;22.90;99994.00;;;;333586;29;92058;-94
2023/09/03 00:22:27;;;;;;;;;;;22.80;99.30;22.90;99991.00;;;;335158;29;96231;-93
2023/09/03 00:22:39;;;;;;;;;;;22.80;99.20;22.90;99994.00;;;;336195;28;91161;-94
2023/09/03 00:22:51;;;;;;;;;;;22.80;99.30;22.80;99995.00;;;;335145;29;95605;-94
2023/09/03 00:23:04;;;;;;;;;;;22.80;99.40;22.80;99992.00;;;;336161;28;91246;-93
2023/09/03 00:23:16;;;;;;;;;;;22.80;99.60;22.80;99985.00;;;;337769;28;94966;-93
2023/09/03 00:23:28;;;;;;;;;;;22.80;99.50;22.80;100002.00;;;;337426;28;91235;-93
2023/09/03 00:23:40;;;;;;;;;;;22.80;99.40;22.80;99991.00;;;;337741;28;95871;-93
2023/09/03 00:23:52;;;;;;;;;;;22.70;99.30;22.80;99993.00;;;;338840;28;91977;-93
2023/09/03 00:24:04;;;;;;;;;;;22.80;99.30;22.90;100000.00;;;;336335;28;94836;-94
2023/09/03 00:24:16;;;;;;;;;;;22.70;99.50;22.80;99987.00;;;;336249;28;91967;-93
2023/09/03 00:24:28;;;;;;;;;;;22.80;99.40;22.80;99997.00;;;;336380;28;96247;-93
2023/09/03 00:24:40;;;;;;;;;;;22.80;99.70;22.80;99985.00;;;;334712;29;91247;-93
2023/09/03 00:24:51;;;;;;;;;;;22.80;99.50;22.80;99990.00;;;;336421;28;96501;-94
2023/09/03 00:25:04;;;;;;;;;;;22.70;99.40;22.80;99993.00;;;;336138;28;91284;-93
2023/09/03 00:25:15;;;;;;;;;;;22.70;99.60;22.80;99984.00;;;;336429;28;94238;-93
2023/09/03 00:25:27;;;;;;;;;;;22.70;99.70;22.80;99990.00;;;;336068;28;92000;-93
2023/09/03 00:25:39;;;;;;;;;;;22.70;99.70;22.80;99990.00;;;;337694;28;95947;-93
2023/09/03 00:25:51;;;;;;;;;;;22.70;99.70;22.80;99995.00;;;;338804;28;92051;-93
2023/09/03 00:26:03;;;;;;;;;;;22.70;99.50;22.80;100002.00;;;;336327;28;96257;-94
2023/09/03 00:26:17;;;;;;;;;;;22.70;99.50;22.80;99990.00;;;;339885;28;91208;-93
2023/09/03 00:26:29;;;;;;;;;;;22.70;99.50;22.80;99991.00;;;;339020;28;95257;-94
2023/09/03 00:26:41;;;;;;;;;;;22.70;99.50;22.80;99987.00;;;;337506;28;91149;-94
2023/09/03 00:26:53;;;;;;;;;;;22.70;99.40;22.80;99989.00;;;;336521;28;92022;-93
2023/09/03 00:27:05;;;;;;;;;;;22.70;99.60;22.80;99984.00;;;;335990;28;91380;-94
2023/09/03 00:27:17;;;;;;;;;;;22.70;99.70;22.80;99989.00;;;;337789;28;94506;-93
2023/09/03 00:27:28;;;;;;;;;;;22.70;99.70;22.80;99993.00;;;;337495;28;91187;-93
2023/09/03 00:27:40;;;;;;;;;;;22.70;99.60;22.70;99981.00;;;;337702;28;95261;-93
2023/09/03 00:27:52;;;;;;;;;;;22.70;99.70;22.70;99993.00;;;;337487;28;91876;-93
2023/09/03 00:28:04;;;;;;;;;;;22.70;99.60;22.70;99992.00;;;;336310;28;96046;-92
2023/09/03 00:28:16;;;;;;;;;;;22.70;99.90;22.90;99994.00;;;;337493;28;91907;-93
2023/09/03 00:28:28;;;;;;;;;;;22.60;99.60;22.90;99988.00;;;;340437;28;95977;-93
2023/09/03 00:28:40;;;;;;;;;;;22.70;99.70;22.80;99998.00;;;;340232;28;91865;-93
2023/09/03 00:28:52;;;;;;;;;;;22.60;99.80;22.80;99986.00;;;;339066;28;95574;-93
2023/09/03 00:29:04;;;;;;;;;;;22.70;99.90;22.80;99987.00;;;;337453;28;91261;-93
2023/09/03 00:29:16;;;;;;;;;;;22.70;99.80;22.70;99989.00;;;;336466;28;95174;-93
2023/09/03 00:29:29;;;;;;;;;;;22.70;99.90;22.70;99985.00;;;;336087;28;92055;-93
2023/09/03 00:29:40;;;;;;;;;;;22.70;99.90;22.70;99993.00;;;;340442;28;95145;-92
2023/09/03 00:29:53;;;;;;;;;;;22.70;99.90;22.60;99986.00;;;;336194;28;92084;-93
2023/09/03 00:30:06;;;;;;;;;;;22.60;99.90;22.60;99989.00;;;;335067;29;94914;-94
2023/09/03 00:30:18;;;;;;;;;;;22.60;99.90;22.50;99991.00;;;;337612;28;91120;-93
2023/09/03 00:30:30;;;;;;;;;;;22.60;99.90;22.60;99988.00;;;;335096;29;95268;-93
2023/09/03 00:30:42;;;;;;;;;;;22.60;99.90;22.70;99992.00;;;;336151;28;91255;-93
2023/09/03 00:31:03;;;;;;;;;;;22.60;99.90;22.60;99982.00;;;;337720;28;95983;-93
2023/09/03 00:31:15;;;;;;;;;;;22.60;99.90;22.60;99987.00;;;;334925;29;91272;-93
2023/09/03 00:31:27;;;;;;;;;;;22.60;99.90;22.70;99983.00;;;;337590;28;95547;-93
2023/09/03 00:31:39;;;;;;;;;;;22.60;99.90;22.60;99990.00;;;;338821;28;91962;-94
2023/09/03 00:31:51;;;;;;;;;;;22.60;99.90;22.50;99987.00;;;;336427;28;96411;-93
2023/09/03 00:32:03;;;;;;;;;;;22.60;99.90;22.40;99987.00;;;;337454;28;92087;-93
2023/09/03 00:32:15;;;;;;;;;;;22.60;99.90;22.70;99983.00;;;;336427;28;94516;-93
2023/09/03 00:32:27;;;;;;;;;;;22.60;99.90;22.70;99983.00;;;;336121;28;92045;-93
2023/09/03 00:32:39;;;;;;;;;;;22.60;99.90;22.80;99987.00;;;;336397;28;95509;-93
2023/09/03 00:32:51;;;;;;;;;;;22.60;99.90;22.80;99979.00;;;;336244;28;92039;-93
2023/09/03 00:33:03;;;;;;;;;;;22.60;99.90;22.90;99984.00;;;;339082;28;94871;-94
2023/09/03 00:33:15;;;;;;;;;;;22.70;99.90;22.90;99988.00;;;;339003;28;90442;-93
2023/09/03 00:33:28;;;;;;;;;;;22.70;99.90;23.00;99986.00;;;;336415;28;92784;-94
2023/09/03 00:33:39;;;;;;;;;;;22.60;99.90;23.00;99990.00;;;;338530;28;91354;-93
2023/09/03 00:33:52;;;;;;;;;;;22.70;99.90;22.80;99978.00;;;;336336;28;95298;-93
2023/09/03 00:34:04;;;;;;;;;;;22.70;99.90;22.60;99984.00;;;;337381;28;92019;-93
2023/09/03 00:34:15;;;;;;;;;;;22.70;99.80;22.50;99987.00;;;;337707;28;95378;-93
2023/09/03 00:34:27;;;;;;;;;;;22.60;99.90;22.40;99985.00;;;;338577;28;92134;-92
2023/09/03 00:34:39;;;;;;;;;;;22.70;99.90;22.50;99981.00;;;;339013;28;96073;-93
2023/09/03 00:34:51;;;;;;;;;;;22.60;99.90;22.50;99990.00;;;;337547;28;91133;-92
2023/09/03 00:35:04;;;;;;;;;;;22.60;99.90;22.50;99988.00;;;;338980;28;96356;-93
2023/09/03 00:35:16;;;;;;;;;;;22.60;99.90;22.40;99984.00;;;;338860;28;90350;-93
2023/09/03 00:35:27;;;;;;;;;;;22.50;99.90;22.50;99986.00;;;;336272;28;95313;-93
2023/09/03 00:35:40;;;;;;;;;;;22.60;99.90;22.50;99993.00;;;;336268;28;91960;-93
2023/09/03 00:35:52;;;;;;;;;;;22.60;99.90;22.50;99987.00;;;;335162;29;94710;-93
2023/09/03 00:36:05;;;;;;;;;;;22.60;99.90;22.50;99985.00;;;;334841;29;92085;-93
2023/09/03 00:36:17;;;;;;;;;;;22.60;99.90;22.50;99990.00;;;;337689;28;96093;-93
2023/09/03 00:36:29;;;;;;;;;;;22.60;99.90;22.50;99992.00;;;;338814;28;91206;-93
2023/09/03 00:36:41;;;;;;;;;;;22.50;99.90;22.50;99983.00;;;;337720;28;93494;-93
2023/09/03 00:36:53;;;;;;;;;;;22.50;99.90;22.50;99989.00;;;;337499;28;91985;-94
2023/09/03 00:37:04;;;;;;;;;;;22.50;99.90;22.50;99987.00;;;;337742;28;95155;-92
2023/09/03 00:37:16;;;;;;;;;;;22.50;99.90;22.50;99987.00;;;;337507;28;91299;-93
2023/09/03 00:37:28;;;;;;;;;;;22.50;99.90;22.50;99986.00;;;;336500;28;94143;-93
2023/09/03 00:37:40;;;;;;;;;;;22.50;99.90;22.50;99987.00;;;;333752;29;91977;-93
2023/09/03 00:37:52;;;;;;;;;;;22.50;99.90;22.40;99995.00;;;;337719;28;95144;-93
2023/09/03 00:38:04;;;;;;;;;;;22.50;99.90;22.30;99985.00;;;;338786;28;92017;-92
2023/09/03 00:38:16;;;;;;;;;;;22.50;99.90;22.30;99984.00;;;;337767;28;95938;-93
2023/09/03 00:38:28;;;;;;;;;;;22.50;99.90;22.40;99999.00;;;;337467;28;91963;-92
2023/09/03 00:38:40;;;;;;;;;;;22.50;99.90;22.40;99994.00;;;;337647;28;95522;-93
2023/09/03 00:38:53;;;;;;;;;;;22.50;99.90;22.40;99991.00;;;;336125;28;92039;-93
2023/09/03 00:39:05;;;;;;;;;;;22.50;99.90;22.50;99990.00;;;;333814;29;93630;-93
2023/09/03 00:39:18;;;;;;;;;;;22.50;99.90;22.60;99992.00;;;;334819;29;90406;-93
2023/09/03 00:39:30;;;;;;;;;;;22.50;99.90;22.50;99980.00;;;;336327;28;94516;-93
2023/09/03 00:39:42;;;;;;;;;;;22.50;99.90;22.40;99990.00;;;;337218;28;91309;-93
2023/09/03 00:39:54;;;;;;;;;;;22.50;99.90;22.40;99994.00;;;;335099;28;91319;-93
2023/09/03 00:40:06;;;;;;;;;;;22.50;99.90;22.50;99997.00;;;;337466;28;91197;-93
2023/09/03 00:40:18;;;;;;;;;;;22.50;99.90;22.50;99995.00;;;;337711;28;95952;-93
2023/09/03 00:40:37;;;;;;;;;;;22.50;99.90;22.50;99997.00;;;;334882;29;92047;-93
2023/09/03 00:40:49;;;;;;;;;;;22.50;99.90;22.40;99993.00;;;;336289;28;96579;-93
2023/09/03 00:41:04;;;;;;;;;;;22.50;99.90;22.40;99991.00;;;;336180;28;91978;-93
2023/09/03 00:41:16;;;;;;;;;;;22.50;99.90;22.30;99997.00;;;;337724;28;95361;-93
2023/09/03 00:41:29;;;;;;;;;;;22.40;99.90;22.30;99998.00;;;;337434;28;90435;-93
2023/09/03 00:41:41;;;;;;;;;;;22.40;99.90;22.40;100001.00;;;;336507;28;94018;-93
2023/09/03 00:41:53;;;;;;;;;;;22.40;99.90;22.40;99994.00;;;;338831;28;91173;-93
2023/09/03 00:42:05;;;;;;;;;;;22.40;99.90;22.40;99997.00;;;;338993;28;95092;-94
2023/09/03 00:42:16;;;;;;;;;;;22.40;99.90;22.40;99994.00;;;;337529;28;92032;-93
2023/09/03 00:42:28;;;;;;;;;;;22.40;99.90;22.40;99990.00;;;;337599;28;95903;-93
2023/09/03 00:42:40;;;;;;;;;;;22.40;99.90;22.60;99997.00;;;;337449;28;91902;-93
2023/09/03 00:42:52;;;;;;;;;;;22.40;99.90;22.50;99990.00;;;;336330;28;96330;-93
2023/09/03 00:43:04;;;;;;;;;;;22.40;99.90;22.60;99995.00;;;;338778;28;92075;-93
2023/09/03 00:43:16;;;;;;;;;;;22.40;99.90;22.60;99993.00;;;;336470;28;94573;-93
2023/09/03 00:43:28;;;;;;;;;;;22.40;99.90;22.50;99986.00;;;;337418;28;91362;-93
2023/09/03 00:43:40;;;;;;;;;;;22.40;99.90;22.40;99994.00;;;;341698;28;95181;-93
2023/09/03 00:43:52;;;;;;;;;;;22.40;99.90;22.40;99998.00;;;;337521;28;91916;-93
2023/09/03 00:44:04;;;;;;;;;;;22.40;99.90;22.40;99997.00;;;;336270;28;96131;-93
2023/09/03 00:44:16;;;;;;;;;;;22.40;99.90;22.40;100001.00;;;;336227;28;91930;-93
2023/09/03 00:44:28;;;;;;;;;;;22.40;99.90;22.40;99990.00;;;;337662;28;94621;-93
2023/09/03 00:44:40;;;;;;;;;;;22.40;99.90;22.40;99992.00;;;;336086;28;91959;-93
2023/09/03 00:44:52;;;;;;;;;;;22.40;99.90;22.50;99997.00;;;;337715;28;96144;-93
2023/09/03 00:45:04;;;;;;;;;;;22.40;99.90;22.50;99993.00;;;;337563;28;91918;-93
2023/09/03 00:45:15;;;;;;;;;;;22.40;99.90;22.60;99993.00;;;;337715;28;96165;-92
2023/09/03 00:45:27;;;;;;;;;;;22.40;99.90;22.50;99997.00;;;;334844;29;91319;-93
2023/09/03 00:45:40;;;;;;;;;;;22.40;99.90;22.50;99999.00;;;;336441;28;92416;-94
2023/09/03 00:45:52;;;;;;;;;;;22.40;99.90;22.40;100000.00;;;;338732;28;91962;-93
2023/09/03 00:46:05;;;;;;;;;;;22.40;99.90;22.40;99997.00;;;;335076;29;96057;-93
2023/09/03 00:46:17;;;;;;;;;;;22.40;99.90;22.50;99997.00;;;;338841;28;92047;-93
2023/09/03 00:46:29;;;;;;;;;;;22.40;99.90;22.50;100002.00;;;;338942;28;95642;-93
2023/09/03 00:46:44;;;;;;;;;;;22.40;99.90;22.60;99993.00;;;;338783;28;92120;-93
2023/09/03 00:46:56;;;;;;;;;;;22.40;99.90;22.50;100001.00;;;;340420;28;94417;-91
2023/09/03 00:47:08;;;;;;;;;;;22.40;99.90;22.60;99996.00;;;;338795;28;91139;-94
2023/09/03 00:47:20;;;;;;;;;;;22.40;99.90;22.50;99998.00;;;;336404;28;94932;-93
2023/09/03 00:47:31;;;;;;;;;;;22.40;99.90;22.50;100007.00;;;;336127;28;91415;-94
2023/09/03 00:47:43;;;;;;;;;;;22.40;99.90;22.50;99998.00;;;;337782;28;94377;-93
2023/09/03 00:47:55;;;;;;;;;;;22.40;99.90;22.50;99995.00;;;;336165;28;92076;-92
2023/09/03 00:48:09;;;;;;;;;;;22.40;99.90;22.50;99997.00;;;;335051;29;96323;-93
2023/09/03 00:48:26;;;;;;;;;;;22.40;99.90;22.40;99988.00;;;;333597;29;92036;-93
2023/09/03 00:48:38;;;;;;;;;;;22.40;99.90;22.40;99998.00;;;;336317;28;97048;-93
2023/09/03 00:48:50;;;;;;;;;;;22.40;99.90;22.40;99991.00;;;;334867;29;91974;-93
2023/09/03 00:49:02;;;;;;;;;;;22.40;99.90;22.40;99998.00;;;;333829;29;94881;-93
2023/09/03 00:49:21;;;;;;;;;;;22.40;99.90;22.40;99996.00;;;;334897;29;91169;-93
2023/09/03 00:49:37;;;;;;;;;;;22.40;99.90;22.40;99993.00;;;;336385;28;94160;-93
2023/09/03 00:49:49;;;;;;;;;;;22.30;99.90;22.40;99995.00;;;;337492;28;91225;-93
2023/09/03 00:50:01;;;;;;;;;;;22.30;99.90;22.40;99993.00;;;;336253;28;95536;-92
2023/09/03 00:50:13;;;;;;;;;;;22.40;99.90;22.40;99993.00;;;;336258;28;92055;-93
2023/09/03 00:50:26;;;;;;;;;;;22.30;99.90;22.30;99991.00;;;;336431;28;96189;-93
2023/09/03 00:50:37;;;;;;;;;;;22.30;99.90;22.30;100001.00;;;;336170;28;91137;-93
2023/09/03 00:50:49;;;;;;;;;;;22.30;99.90;22.20;99996.00;;;;336393;28;95082;-94
2023/09/03 00:51:03;;;;;;;;;;;22.30;99.90;22.20;99995.00;;;;337457;28;92023;-93
2023/09/03 00:51:15;;;;;;;;;;;22.30;99.90;22.20;99991.00;;;;339166;28;94414;-93
2023/09/03 00:51:27;;;;;;;;;;;22.30;99.90;22.20;99997.00;;;;338677;28;91980;-93
2023/09/03 00:51:38;;;;;;;;;;;22.30;99.90;22.20;99996.00;;;;336431;28;95720;-93
2023/09/03 00:51:51;;;;;;;;;;;22.30;99.90;22.30;99995.00;;;;336315;28;90371;-93
2023/09/03 00:52:03;;;;;;;;;;;22.30;99.90;22.30;100002.00;;;;337679;28;94171;-93
2023/09/03 00:52:18;;;;;;;;;;;22.30;99.90;22.30;99994.00;;;;337491;28;91965;-93
2023/09/03 00:52:30;;;;;;;;;;;22.30;99.90;22.30;100002.00;;;;339072;28;92566;-93
2023/09/03 00:52:42;;;;;;;;;;;22.30;99.90;22.20;100005.00;;;;337411;28;92128;-93
2023/09/03 00:52:55;;;;;;;;;;;22.30;99.90;22.20;100002.00;;;;339083;28;94967;-92
2023/09/03 00:53:06;;;;;;;;;;;22.30;99.90;22.20;99999.00;;;;336188;28;91187;-93
2023/09/03 00:53:18;;;;;;;;;;;22.30;99.90;22.20;99999.00;;;;336403;28;96175;-93
2023/09/03 00:53:33;;;;;;;;;;;22.30;99.90;22.30;99993.00;;;;336113;28;92017;-93
2023/09/03 00:53:47;;;;;;;;;;;22.20;99.90;22.30;100002.00;;;;339254;28;96309;-93
2023/09/03 00:54:02;;;;;;;;;;;22.20;99.90;22.30;99998.00;;;;336563;28;90358;-93
2023/09/03 00:54:14;;;;;;;;;;;22.30;99.90;22.50;100000.00;;;;336909;28;94413;-93
2023/09/03 00:54:26;;;;;;;;;;;22.30;99.90;22.50;100002.00;;;;339277;28;91141;-93
2023/09/03 00:54:38;;;;;;;;;;;22.30;99.90;22.50;100000.00;;;;338166;28;95701;-92
2023/09/03 00:54:50;;;;;;;;;;;22.30;99.90;22.50;100007.00;;;;339178;28;92713;-92
2023/09/03 00:55:02;;;;;;;;;;;22.30;99.90;22.40;99995.00;;;;339481;28;93452;-93
2023/09/03 00:55:14;;;;;;;;;;;22.30;99.90;22.50;100005.00;;;;338009;28;91869;-93
2023/09/03 00:55:25;;;;;;;;;;;22.30;99.90;22.40;100000.00;;;;338095;28;96333;-93
2023/09/03 00:55:38;;;;;;;;;;;22.30;99.90;22.40;100010.00;;;;336656;28;91240;-92
2023/09/03 00:55:49;;;;;;;;;;;22.30;99.90;22.40;99995.00;;;;338265;28;95811;-93
2023/09/03 00:56:01;;;;;;;;;;;22.30;99.90;22.40;100004.00;;;;337977;28;91307;-93
2023/09/03 00:56:13;;;;;;;;;;;22.30;99.90;22.40;100000.00;;;;336903;28;94142;-93
2023/09/03 00:56:25;;;;;;;;;;;22.30;99.90;22.40;100003.00;;;;337887;28;92018;-93
2023/09/03 00:56:37;;;;;;;;;;;22.30;99.90;22.40;100000.00;;;;338106;28;94157;-93
2023/09/03 00:56:52;;;;;;;;;;;22.30;99.90;22.40;100002.00;;;;336628;28;92119;-93
2023/09/03 00:57:04;;;;;;;;;;;22.30;99.90;22.40;100004.00;;;;338137;28;94354;-93
2023/09/03 00:57:16;;;;;;;;;;;22.30;99.90;22.40;100001.00;;;;335397;29;91162;-93
2023/09/03 00:57:28;;;;;;;;;;;22.30;99.90;22.40;100001.00;;;;336894;28;92906;-93
2023/09/03 00:57:40;;;;;;;;;;;22.30;99.90;22.40;100000.00;;;;338017;28;92079;-93
2023/09/03 00:57:52;;;;;;;;;;;22.30;99.90;22.40;100001.00;;;;340942;28;95995;-93
2023/09/03 00:58:06;;;;;;;;;;;22.30;99.90;22.30;100004.00;;;;336535;28;91352;-93
2023/09/03 00:58:18;;;;;;;;;;;22.30;99.90;22.30;100004.00;;;;333934;29;94159;-94
2023/09/03 00:58:31;;;;;;;;;;;22.30;99.90;22.40;100002.00;;;;334931;29;91911;-94
2023/09/03 00:58:43;;;;;;;;;;;22.30;99.90;22.40;99999.00;;;;336317;28;96055;-93
2023/09/03 00:58:55;;;;;;;;;;;22.30;99.90;22.40;100006.00;;;;336140;28;91997;-93
2023/09/03 00:59:08;;;;;;;;;;;22.30;99.90;22.40;99999.00;;;;336479;28;94817;-93
2023/09/03 00:59:20;;;;;;;;;;;22.30;99.90;22.40;100009.00;;;;336142;28;91940;-93
2023/09/03 00:59:32;;;;;;;;;;;22.30;99.90;22.50;100008.00;;;;336297;28;96357;-94
2023/09/03 00:59:45;;;;;;;;;;;22.30;99.90;22.50;100011.00;;;;337562;28;91753;-93
2023/09/03 00:59:57;;;;;;;;;;;22.30;99.90;22.50;100004.00;;;;333857;29;94303;-93
2023/09/03 01:00:09;;;;;;;;;;;22.30;99.90;22.50;100006.00;;;;336156;28;91425;-93
2023/09/03 01:00:21;;;;;;;;;;;22.30;99.90;22.50;100001.00;;;;340422;28;94850;-93
2023/09/03 01:00:34;;;;;;;;;;;22.30;99.90;22.50;100011.00;;;;338815;28;91938;-93
2023/09/03 01:00:45;;;;;;;;;;;22.30;99.90;22.50;100002.00;;;;337487;28;96283;-94